createdAt,value
2022-10-08T00:00:55.039Z,13.59
2022-10-08T00:01:55.104Z,13.63
2022-10-08T00:02:55.051Z,13.67
2022-10-08T00:03:55.075Z,13.57
2022-10-08T00:04:55.001Z,13.59
2022-10-08T00:05:55.004Z,13.56
2022-10-08T00:06:55.018Z,13.53
2022-10-08T00:07:54.987Z,13.57
2022-10-08T00:08:54.975Z,13.57
2022-10-08T00:09:54.947Z,13.56
2022-10-08T00:10:54.955Z,13.57
2022-10-08T00:11:54.944Z,13.57
2022-10-08T00:12:54.993Z,13.57
2022-10-08T00:13:54.907Z,13.60
2022-10-08T00:14:54.891Z,13.60
2022-10-08T00:15:54.937Z,13.53
2022-10-08T00:16:54.897Z,13.57
2022-10-08T00:17:54.909Z,13.56
2022-10-08T00:18:54.854Z,13.62
2022-10-08T00:19:54.864Z,13.63
2022-10-08T00:20:54.823Z,13.57
2022-10-08T00:21:54.810Z,13.56
2022-10-08T00:22:54.849Z,13.53
2022-10-08T00:23:54.800Z,13.54
2022-10-08T00:24:54.788Z,13.56
2022-10-08T00:25:54.778Z,13.56
2022-10-08T00:26:54.756Z,13.47
2022-10-08T00:27:54.748Z,13.54
2022-10-08T00:28:54.781Z,13.50
2022-10-08T00:29:54.730Z,13.53
2022-10-08T00:30:54.721Z,13.49
2022-10-08T00:31:55.538Z,13.46
2022-10-08T00:32:59.700Z,13.52
2022-10-08T00:33:54.737Z,13.52
2022-10-08T00:34:54.711Z,13.50
2022-10-08T00:35:54.656Z,13.47
2022-10-08T00:36:54.655Z,13.52
2022-10-08T00:37:54.653Z,13.52
2022-10-08T00:38:54.631Z,13.53
2022-10-08T00:39:54.631Z,13.52
2022-10-08T00:40:54.633Z,13.44
2022-10-08T00:41:54.623Z,13.50
2022-10-08T00:42:54.588Z,13.50
2022-10-08T00:43:54.577Z,13.49
2022-10-08T00:44:54.708Z,13.44
2022-10-08T00:45:54.587Z,13.38
2022-10-08T00:46:54.547Z,13.31
2022-10-08T00:47:54.542Z,13.30
2022-10-08T00:48:54.515Z,13.28
2022-10-08T00:49:54.529Z,13.35
2022-10-08T00:50:54.546Z,13.39
2022-10-08T00:51:54.484Z,13.25
2022-10-08T00:52:54.478Z,13.23
2022-10-08T00:53:54.468Z,13.27
2022-10-08T00:54:54.458Z,13.25
2022-10-08T00:55:54.480Z,13.05
2022-10-08T00:56:54.432Z,13.13
2022-10-08T00:57:54.425Z,13.05
2022-10-08T00:58:54.415Z,12.87
2022-10-08T00:59:54.397Z,12.93
2022-10-08T01:00:54.430Z,12.90
2022-10-08T01:01:54.428Z,12.87
2022-10-08T01:02:54.382Z,12.93
2022-10-08T01:03:54.356Z,12.91
2022-10-08T01:04:54.349Z,12.95
2022-10-08T01:05:54.350Z,12.86
2022-10-08T01:06:54.363Z,12.91
2022-10-08T01:07:54.310Z,12.94
2022-10-08T01:08:54.300Z,12.97
2022-10-08T01:09:54.295Z,13.00
2022-10-08T01:10:54.286Z,12.91
2022-10-08T01:11:54.302Z,12.95
2022-10-08T01:12:54.257Z,12.98
2022-10-08T01:13:54.249Z,13.03
2022-10-08T01:14:54.239Z,13.01
2022-10-08T01:15:54.307Z,13.01
2022-10-08T01:16:54.241Z,12.93
2022-10-08T01:17:54.230Z,12.98
2022-10-08T01:18:54.224Z,12.87
2022-10-08T01:19:54.182Z,13.00
2022-10-08T01:20:54.172Z,13.01
2022-10-08T01:21:54.162Z,13.11
2022-10-08T01:22:54.186Z,13.03
2022-10-08T01:23:54.142Z,13.13
2022-10-08T01:24:54.125Z,13.13
2022-10-08T01:25:54.121Z,13.13
2022-10-08T01:26:54.102Z,13.16
2022-10-08T01:27:54.103Z,13.12
2022-10-08T01:28:54.111Z,13.05
2022-10-08T01:29:54.067Z,13.08
2022-10-08T01:30:54.058Z,13.03
2022-10-08T01:31:54.144Z,13.15
2022-10-08T01:32:54.076Z,13.12
2022-10-08T01:33:54.053Z,13.09
2022-10-08T01:34:54.013Z,13.05
2022-10-08T01:35:54.065Z,13.08
2022-10-08T01:36:53.992Z,13.00
2022-10-08T01:37:53.985Z,12.98
2022-10-08T01:38:54.004Z,12.83
2022-10-08T01:39:53.969Z,12.82
2022-10-08T01:40:53.960Z,12.86
2022-10-08T01:41:53.947Z,12.82
2022-10-08T01:42:53.938Z,12.76
2022-10-08T01:43:53.955Z,12.76
2022-10-08T01:44:53.905Z,12.75
2022-10-08T01:45:53.978Z,12.78
2022-10-08T01:46:53.893Z,12.82
2022-10-08T01:47:53.881Z,12.83
2022-10-08T01:48:53.946Z,12.83
2022-10-08T01:49:53.851Z,12.93
2022-10-08T01:50:53.840Z,12.85
2022-10-08T01:51:53.829Z,12.91
2022-10-08T01:52:53.824Z,12.87
2022-10-08T01:53:53.806Z,12.86
2022-10-08T01:54:53.831Z,12.73
2022-10-08T01:55:53.796Z,12.73
2022-10-08T01:56:53.776Z,12.80
2022-10-08T01:57:53.771Z,12.80
2022-10-08T01:58:53.759Z,12.86
2022-10-08T01:59:53.744Z,12.94
2022-10-08T02:00:53.789Z,12.91
2022-10-08T02:01:53.791Z,12.91
2022-10-08T02:02:53.719Z,13.01
2022-10-08T02:03:53.701Z,12.95
2022-10-08T02:04:53.715Z,12.90
2022-10-08T02:05:53.684Z,13.01
2022-10-08T02:06:53.689Z,13.01
2022-10-08T02:07:53.657Z,13.03
2022-10-08T02:08:53.649Z,13.01
2022-10-08T02:09:53.643Z,13.00
2022-10-08T02:10:53.623Z,12.94
2022-10-08T02:11:53.635Z,12.91
2022-10-08T02:12:53.663Z,12.87
2022-10-08T02:13:53.590Z,12.86
2022-10-08T02:14:53.587Z,12.90
2022-10-08T02:15:53.577Z,12.87
2022-10-08T02:16:53.587Z,12.85
2022-10-08T02:17:53.553Z,12.83
2022-10-08T02:18:53.553Z,12.87
2022-10-08T02:19:53.524Z,12.93
2022-10-08T02:20:53.533Z,12.94
2022-10-08T02:21:53.514Z,12.91
2022-10-08T02:22:53.493Z,12.87
2022-10-08T02:23:53.498Z,12.85
2022-10-08T02:24:53.479Z,12.91
2022-10-08T02:25:53.464Z,12.87
2022-10-08T02:26:53.451Z,12.86
2022-10-08T02:27:53.437Z,12.91
2022-10-08T02:28:53.449Z,12.86
2022-10-08T02:29:53.424Z,12.91
2022-10-08T02:30:53.417Z,12.93
2022-10-08T02:31:53.555Z,12.82
2022-10-08T02:32:53.389Z,12.82
2022-10-08T02:33:53.373Z,12.83
2022-10-08T02:34:53.403Z,12.76
2022-10-08T02:35:53.362Z,12.80
2022-10-08T02:36:53.356Z,12.75
2022-10-08T02:37:53.341Z,12.78
2022-10-08T02:38:53.317Z,12.73
2022-10-08T02:39:53.306Z,12.91
2022-10-08T02:40:53.313Z,12.86
2022-10-08T02:41:53.312Z,12.93
2022-10-08T02:42:53.289Z,12.98
2022-10-08T02:43:53.273Z,12.91
2022-10-08T02:44:53.279Z,12.94
2022-10-08T02:45:53.323Z,12.90
2022-10-08T02:46:53.245Z,12.93
2022-10-08T02:47:53.219Z,12.94
2022-10-08T02:48:53.206Z,12.95
2022-10-08T02:49:53.213Z,12.87
2022-10-08T02:50:53.185Z,12.80
2022-10-08T02:51:53.184Z,12.62
2022-10-08T02:52:53.209Z,12.60
2022-10-08T02:53:53.195Z,12.62
2022-10-08T02:54:53.153Z,12.62
2022-10-08T02:55:53.142Z,12.70
2022-10-08T02:56:53.144Z,12.64
2022-10-08T02:57:53.179Z,12.68
2022-10-08T02:58:53.111Z,12.68
2022-10-08T02:59:53.122Z,12.75
2022-10-08T03:00:53.111Z,12.72
2022-10-08T03:01:53.195Z,12.57
2022-10-08T03:02:53.149Z,12.57
2022-10-08T03:03:53.058Z,12.58
2022-10-08T03:04:53.046Z,12.68
2022-10-08T03:05:53.050Z,12.65
2022-10-08T03:06:53.022Z,12.65
2022-10-08T03:07:53.014Z,12.62
2022-10-08T03:08:53.015Z,12.58
2022-10-08T03:09:52.990Z,12.58
2022-10-08T03:10:52.987Z,12.61
2022-10-08T03:11:52.958Z,12.55
2022-10-08T03:12:52.960Z,12.58
2022-10-08T03:13:52.941Z,12.55
2022-10-08T03:14:52.933Z,12.64
2022-10-08T03:15:52.940Z,12.60
2022-10-08T03:16:52.977Z,12.61
2022-10-08T03:17:52.901Z,12.60
2022-10-08T03:18:52.884Z,12.64
2022-10-08T03:19:52.879Z,12.53
2022-10-08T03:20:52.866Z,12.61
2022-10-08T03:21:52.859Z,12.58
2022-10-08T03:22:52.843Z,12.50
2022-10-08T03:23:52.837Z,12.46
2022-10-08T03:24:56.677Z,12.60
2022-10-08T03:25:52.812Z,12.60
2022-10-08T03:26:52.815Z,12.54
2022-10-08T03:27:52.791Z,12.54
2022-10-08T03:28:52.781Z,12.42
2022-10-08T03:29:52.770Z,12.47
2022-10-08T03:30:52.783Z,12.55
2022-10-08T03:31:52.770Z,12.61
2022-10-08T03:32:52.749Z,12.45
2022-10-08T03:33:52.721Z,12.47
2022-10-08T03:34:52.720Z,12.45
2022-10-08T03:35:52.710Z,12.50
2022-10-08T03:36:52.688Z,12.47
2022-10-08T03:37:52.693Z,12.43
2022-10-08T03:38:52.667Z,12.55
2022-10-08T03:39:52.679Z,12.39
2022-10-08T03:40:52.776Z,12.42
2022-10-08T03:41:52.633Z,12.42
2022-10-08T03:42:52.639Z,12.35
2022-10-08T03:43:52.635Z,12.47
2022-10-08T03:44:52.606Z,12.47
2022-10-08T03:45:52.625Z,12.45
2022-10-08T03:46:52.591Z,12.43
2022-10-08T03:47:52.596Z,12.45
2022-10-08T03:48:52.562Z,12.42
2022-10-08T03:49:52.575Z,12.45
2022-10-08T03:50:52.541Z,12.35
2022-10-08T03:51:52.526Z,12.43
2022-10-08T03:52:52.520Z,12.40
2022-10-08T03:53:52.507Z,12.53
2022-10-08T03:54:52.502Z,12.47
2022-10-08T03:55:52.497Z,12.54
2022-10-08T03:56:52.499Z,12.43
2022-10-08T03:57:52.494Z,12.58
2022-10-08T03:58:52.450Z,12.55
2022-10-08T03:59:52.438Z,12.61
2022-10-08T04:00:52.425Z,12.50
2022-10-08T04:01:52.482Z,12.58
2022-10-08T04:02:52.504Z,12.53
2022-10-08T04:03:52.408Z,12.61
2022-10-08T04:04:52.387Z,12.62
2022-10-08T04:05:52.380Z,12.61
2022-10-08T04:06:52.376Z,12.55
2022-10-08T04:07:52.361Z,12.58
2022-10-08T04:08:52.352Z,12.68
2022-10-08T04:09:52.327Z,12.60
2022-10-08T04:10:52.338Z,12.58
2022-10-08T04:11:52.316Z,12.54
2022-10-08T04:12:52.321Z,12.54
2022-10-08T04:13:52.286Z,12.50
2022-10-08T04:14:52.274Z,12.57
2022-10-08T04:15:52.308Z,12.54
2022-10-08T04:16:52.274Z,12.57
2022-10-08T04:17:52.247Z,12.55
2022-10-08T04:18:52.262Z,12.58
2022-10-08T04:19:52.229Z,12.57
2022-10-08T04:20:52.237Z,12.55
2022-10-08T04:21:52.220Z,12.61
2022-10-08T04:22:52.188Z,12.58
2022-10-08T04:23:52.191Z,12.57
2022-10-08T04:24:52.166Z,12.57
2022-10-08T04:25:52.153Z,12.54
2022-10-08T04:26:59.250Z,12.53
2022-10-08T04:27:52.138Z,12.60
2022-10-08T04:28:52.246Z,12.54
2022-10-08T04:29:52.127Z,12.53
2022-10-08T04:30:52.145Z,12.54
2022-10-08T04:31:52.099Z,12.60
2022-10-08T04:32:52.108Z,12.55
2022-10-08T04:33:52.097Z,12.57
2022-10-08T04:34:52.071Z,12.55
2022-10-08T04:35:55.096Z,12.60
2022-10-08T04:36:53.037Z,12.58
2022-10-08T04:37:52.025Z,12.67
2022-10-08T04:38:52.029Z,12.68
2022-10-08T04:39:52.033Z,12.68
2022-10-08T04:40:52.001Z,12.75
2022-10-08T04:41:51.978Z,12.80
2022-10-08T04:42:51.985Z,12.83
2022-10-08T04:43:51.968Z,12.86
2022-10-08T04:44:51.979Z,12.85
2022-10-08T04:45:51.968Z,12.87
2022-10-08T04:46:51.938Z,12.91
2022-10-08T04:47:51.923Z,12.86
2022-10-08T04:48:51.911Z,12.90
2022-10-08T04:49:51.911Z,12.95
2022-10-08T04:50:51.885Z,12.85
2022-10-08T04:51:51.895Z,12.94
2022-10-08T04:52:51.873Z,12.87
2022-10-08T04:53:51.851Z,12.90
2022-10-08T04:54:51.854Z,12.91
2022-10-08T04:55:51.842Z,12.93
2022-10-08T04:56:51.863Z,12.90
2022-10-08T04:57:51.814Z,12.90
2022-10-08T04:58:51.797Z,12.83
2022-10-08T05:00:16.630Z,12.79
2022-10-08T05:00:52.794Z,12.79
2022-10-08T05:01:51.858Z,12.79
2022-10-08T05:02:52.020Z,12.83
2022-10-08T05:03:51.749Z,12.78
2022-10-08T05:04:51.738Z,12.78
2022-10-08T05:05:51.737Z,12.78
2022-10-08T05:06:51.720Z,12.76
2022-10-08T05:07:51.730Z,12.72
2022-10-08T05:08:51.728Z,12.76
2022-10-08T05:09:51.684Z,12.78
2022-10-08T05:10:51.683Z,12.78
2022-10-08T05:11:51.662Z,12.70
2022-10-08T05:12:51.651Z,12.68
2022-10-08T05:13:51.673Z,12.68
2022-10-08T05:14:51.638Z,12.67
2022-10-08T05:15:51.666Z,12.73
2022-10-08T05:16:51.720Z,12.72
2022-10-08T05:17:51.597Z,12.76
2022-10-08T05:18:51.581Z,12.67
2022-10-08T05:19:51.575Z,12.64
2022-10-08T05:20:51.555Z,12.65
2022-10-08T05:21:51.565Z,12.61
2022-10-08T05:22:51.546Z,12.57
2022-10-08T05:23:51.534Z,12.47
2022-10-08T05:24:51.515Z,12.55
2022-10-08T05:25:51.521Z,12.53
2022-10-08T05:26:58.523Z,12.49
2022-10-08T05:27:52.489Z,12.40
2022-10-08T05:28:51.493Z,12.49
2022-10-08T05:29:51.476Z,12.39
2022-10-08T05:30:51.483Z,12.43
2022-10-08T05:31:51.444Z,12.42
2022-10-08T05:32:51.501Z,12.43
2022-10-08T05:33:51.423Z,12.39
2022-10-08T05:34:51.430Z,12.45
2022-10-08T05:35:51.396Z,12.39
2022-10-08T05:36:51.395Z,12.49
2022-10-08T05:37:51.386Z,12.43
2022-10-08T05:38:51.372Z,12.43
2022-10-08T05:39:51.363Z,12.42
2022-10-08T05:40:51.374Z,12.49
2022-10-08T05:41:51.412Z,12.50
2022-10-08T05:42:51.333Z,12.43
2022-10-08T05:43:51.321Z,12.45
2022-10-08T05:44:51.295Z,12.40
2022-10-08T05:45:51.283Z,12.53
2022-10-08T05:46:51.396Z,12.45
2022-10-08T05:47:51.287Z,12.46
2022-10-08T05:48:51.274Z,12.47
2022-10-08T05:49:51.251Z,12.45
2022-10-08T05:50:51.249Z,12.55
2022-10-08T05:51:51.242Z,12.46
2022-10-08T05:52:51.219Z,12.39
2022-10-08T05:53:51.202Z,12.47
2022-10-08T05:54:51.198Z,12.45
2022-10-08T05:55:51.193Z,12.47
2022-10-08T05:56:51.190Z,12.50
2022-10-08T05:57:51.173Z,12.50
2022-10-08T05:58:51.188Z,12.55
2022-10-08T05:59:51.136Z,12.46
2022-10-08T06:00:51.124Z,12.58
2022-10-08T06:01:51.119Z,12.60
2022-10-08T06:02:51.484Z,12.53
2022-10-08T06:03:51.100Z,12.57
2022-10-08T06:04:51.192Z,12.58
2022-10-08T06:05:51.071Z,12.67
2022-10-08T06:06:51.077Z,12.68
2022-10-08T06:07:51.051Z,12.68
2022-10-08T06:08:51.071Z,12.70
2022-10-08T06:09:51.038Z,12.64
2022-10-08T06:10:51.026Z,12.67
2022-10-08T06:11:51.023Z,12.76
2022-10-08T06:12:50.995Z,12.76
2022-10-08T06:13:50.985Z,12.64
2022-10-08T06:14:51.009Z,12.78
2022-10-08T06:15:51.014Z,12.79
2022-10-08T06:16:50.957Z,12.65
2022-10-08T06:17:50.941Z,12.61
2022-10-08T06:18:50.939Z,12.58
2022-10-08T06:19:50.932Z,12.60
2022-10-08T06:20:51.157Z,12.55
2022-10-08T06:21:50.916Z,12.73
2022-10-08T06:22:50.995Z,12.64
2022-10-08T06:23:50.900Z,12.64
2022-10-08T06:24:51.616Z,12.67
2022-10-08T06:25:50.870Z,12.68
2022-10-08T06:26:50.850Z,12.67
2022-10-08T06:27:50.830Z,12.70
2022-10-08T06:28:50.870Z,12.78
2022-10-08T06:29:50.834Z,12.76
2022-10-08T06:30:50.799Z,12.83
2022-10-08T06:31:50.867Z,12.83
2022-10-08T06:32:50.781Z,12.93
2022-10-08T06:33:50.774Z,12.90
2022-10-08T06:34:50.775Z,12.94
2022-10-08T06:35:50.750Z,12.83
2022-10-08T06:36:50.757Z,12.90
2022-10-08T06:37:50.725Z,12.86
2022-10-08T06:38:50.728Z,12.87
2022-10-08T06:39:50.722Z,12.86
2022-10-08T06:40:50.710Z,12.93
2022-10-08T06:41:50.711Z,12.95
2022-10-08T06:42:50.676Z,12.91
2022-10-08T06:43:50.671Z,12.90
2022-10-08T06:44:50.652Z,12.90
2022-10-08T06:45:50.638Z,12.90
2022-10-08T06:46:50.719Z,12.85
2022-10-08T06:47:50.629Z,12.87
2022-10-08T06:48:50.601Z,12.83
2022-10-08T06:49:50.603Z,12.86
2022-10-08T06:50:50.612Z,12.80
2022-10-08T06:51:50.578Z,12.78
2022-10-08T06:52:50.596Z,12.68
2022-10-08T06:53:50.550Z,12.62
2022-10-08T06:54:50.543Z,12.61
2022-10-08T06:55:50.534Z,12.65
2022-10-08T06:56:50.532Z,12.76
2022-10-08T06:57:50.509Z,12.73
2022-10-08T06:58:50.507Z,12.83
2022-10-08T06:59:50.482Z,12.93
2022-10-08T07:00:50.518Z,12.93
2022-10-08T07:01:50.510Z,12.95
2022-10-08T07:02:50.602Z,13.03
2022-10-08T07:03:50.447Z,13.11
2022-10-08T07:04:50.439Z,13.22
2022-10-08T07:05:50.420Z,13.22
2022-10-08T07:06:50.450Z,13.23
2022-10-08T07:07:50.403Z,13.27
2022-10-08T07:08:50.410Z,13.28
2022-10-08T07:09:50.373Z,13.31
2022-10-08T07:10:50.375Z,13.38
2022-10-08T07:11:50.389Z,13.53
2022-10-08T07:12:51.032Z,13.52
2022-10-08T07:13:50.329Z,13.60
2022-10-08T07:14:50.347Z,13.52
2022-10-08T07:15:50.454Z,13.49
2022-10-08T07:16:50.369Z,13.52
2022-10-08T07:17:50.294Z,13.47
2022-10-08T07:18:50.308Z,13.38
2022-10-08T07:19:50.268Z,13.19
2022-10-08T07:20:50.280Z,13.11
2022-10-08T07:21:50.248Z,13.15
2022-10-08T07:22:50.576Z,13.12
2022-10-08T07:23:50.229Z,13.13
2022-10-08T07:24:50.242Z,13.22
2022-10-08T07:25:50.203Z,13.23
2022-10-08T07:26:50.193Z,13.25
2022-10-08T07:27:50.181Z,13.33
2022-10-08T07:28:50.159Z,13.41
2022-10-08T07:29:50.171Z,13.50
2022-10-08T07:30:50.148Z,13.53
2022-10-08T07:31:50.222Z,13.59
2022-10-08T07:32:50.310Z,13.71
2022-10-08T07:33:50.116Z,13.70
2022-10-08T07:34:50.097Z,13.79
2022-10-08T07:35:50.097Z,13.83
2022-10-08T07:36:50.094Z,13.83
2022-10-08T07:37:50.078Z,13.86
2022-10-08T07:38:50.063Z,13.89
2022-10-08T07:39:50.039Z,13.81
2022-10-08T07:40:50.117Z,13.90
2022-10-08T07:41:50.027Z,13.90
2022-10-08T07:42:50.246Z,13.83
2022-10-08T07:43:49.997Z,13.74
2022-10-08T07:44:49.984Z,13.70
2022-10-08T07:45:49.989Z,13.67
2022-10-08T07:46:49.975Z,13.77
2022-10-08T07:47:49.963Z,13.81
2022-10-08T07:48:49.957Z,13.79
2022-10-08T07:49:49.971Z,13.78
2022-10-08T07:50:49.928Z,13.81
2022-10-08T07:51:49.907Z,13.67
2022-10-08T07:52:50.288Z,13.68
2022-10-08T07:53:49.890Z,13.63
2022-10-08T07:54:49.877Z,13.79
2022-10-08T07:55:49.871Z,13.96
2022-10-08T07:56:49.869Z,13.95
2022-10-08T07:57:49.864Z,14.05
2022-10-08T07:58:49.855Z,14.17
2022-10-08T07:59:49.826Z,14.25
2022-10-08T08:00:49.844Z,14.22
2022-10-08T08:01:49.862Z,14.29
2022-10-08T08:02:50.129Z,14.41
2022-10-08T08:03:49.781Z,14.30
2022-10-08T08:04:49.766Z,14.35
2022-10-08T08:05:49.764Z,14.47
2022-10-08T08:06:49.749Z,14.43
2022-10-08T08:07:53.116Z,14.48
2022-10-08T08:08:49.731Z,14.54
2022-10-08T08:09:49.719Z,14.59
2022-10-08T08:10:49.699Z,14.55
2022-10-08T08:11:49.690Z,14.58
2022-10-08T08:12:50.081Z,14.58
2022-10-08T08:13:49.699Z,14.55
2022-10-08T08:14:49.671Z,14.62
2022-10-08T08:15:49.653Z,14.81
2022-10-08T08:16:49.737Z,14.85
2022-10-08T08:17:49.628Z,14.92
2022-10-08T08:18:49.625Z,14.97
2022-10-08T08:19:49.635Z,15.06
2022-10-08T08:20:49.591Z,15.21
2022-10-08T08:21:49.580Z,15.17
2022-10-08T08:22:49.962Z,15.35
2022-10-08T08:23:49.559Z,15.52
2022-10-08T08:24:49.579Z,15.65
2022-10-08T08:25:49.531Z,15.62
2022-10-08T08:26:50.804Z,15.75
2022-10-08T08:27:49.523Z,15.82
2022-10-08T08:28:49.564Z,15.94
2022-10-08T08:29:49.497Z,16.13
2022-10-08T08:30:49.504Z,16.47
2022-10-08T08:31:49.622Z,16.89
2022-10-08T08:32:49.804Z,17.63
2022-10-08T08:33:49.455Z,18.89
2022-10-08T08:35:04.870Z,19.96
2022-10-08T08:36:04.672Z,21.02
2022-10-08T08:36:49.422Z,22.10
2022-10-08T08:37:49.412Z,23.09
2022-10-08T08:38:49.403Z,23.80
2022-10-08T08:39:49.383Z,24.54
2022-10-08T08:40:49.381Z,25.32
2022-10-08T08:41:49.370Z,25.96
2022-10-08T08:42:49.701Z,26.53
2022-10-08T08:43:49.342Z,27.22
2022-10-08T08:44:49.350Z,27.60
2022-10-08T08:45:49.360Z,27.26
2022-10-08T08:46:49.330Z,26.84
2022-10-08T08:47:49.301Z,26.78
2022-10-08T08:48:49.291Z,27.07
2022-10-08T08:49:49.269Z,27.54
2022-10-08T08:50:49.275Z,27.68
2022-10-08T08:51:49.343Z,27.96
2022-10-08T08:52:49.820Z,28.26
2022-10-08T08:53:49.229Z,27.71
2022-10-08T08:54:49.243Z,26.18
2022-10-08T08:55:49.238Z,25.43
2022-10-08T08:56:49.212Z,24.84
2022-10-08T08:57:49.197Z,24.68
2022-10-08T08:58:49.187Z,24.26
2022-10-08T08:59:49.170Z,24.24
2022-10-08T09:00:49.193Z,24.89
2022-10-08T09:01:49.154Z,25.08
2022-10-08T09:02:49.554Z,24.53
2022-10-08T09:03:49.170Z,24.33
2022-10-08T09:04:49.122Z,23.83
2022-10-08T09:05:49.164Z,23.55
2022-10-08T09:06:49.092Z,22.68
2022-10-08T09:07:49.111Z,22.35
2022-10-08T09:08:49.103Z,22.20
2022-10-08T09:09:49.070Z,21.88
2022-10-08T09:10:49.060Z,21.27
2022-10-08T09:11:49.051Z,20.72
2022-10-08T09:12:49.644Z,20.50
2022-10-08T09:13:49.025Z,20.58
2022-10-08T09:14:49.038Z,20.60
2022-10-08T09:15:49.017Z,20.74
2022-10-08T09:16:49.127Z,20.67
2022-10-08T09:17:48.975Z,20.81
2022-10-08T09:18:48.966Z,20.66
2022-10-08T09:19:48.957Z,20.47
2022-10-08T09:20:48.979Z,20.29
2022-10-08T09:21:48.939Z,20.11
2022-10-08T09:22:49.413Z,19.96
2022-10-08T09:23:48.915Z,20.04
2022-10-08T09:24:48.908Z,20.13
2022-10-08T09:25:48.898Z,20.18
2022-10-08T09:26:48.887Z,19.91
2022-10-08T09:27:48.874Z,19.62
2022-10-08T09:28:48.903Z,19.33
2022-10-08T09:29:48.853Z,19.29
2022-10-08T09:30:48.883Z,19.36
2022-10-08T09:31:48.839Z,19.26
2022-10-08T09:32:49.168Z,19.37
2022-10-08T09:33:48.813Z,19.41
2022-10-08T09:34:48.797Z,19.55
2022-10-08T09:35:48.787Z,19.55
2022-10-08T09:36:48.764Z,19.52
2022-10-08T09:37:48.779Z,19.26
2022-10-08T09:38:48.753Z,18.92
2022-10-08T09:39:48.741Z,18.77
2022-10-08T09:40:48.732Z,18.80
2022-10-08T09:41:48.731Z,18.59
2022-10-08T09:42:49.016Z,18.56
2022-10-08T09:43:48.698Z,18.44
2022-10-08T09:44:48.684Z,18.31
2022-10-08T09:45:48.719Z,18.11
2022-10-08T09:46:48.678Z,18.19
2022-10-08T09:47:48.692Z,18.00
2022-10-08T09:48:48.653Z,18.00
2022-10-08T09:49:48.681Z,18.00
2022-10-08T09:50:48.623Z,18.01
2022-10-08T09:51:48.612Z,17.89
2022-10-08T09:52:49.228Z,17.83
2022-10-08T09:53:48.591Z,17.67
2022-10-08T09:54:48.571Z,17.67
2022-10-08T09:55:48.570Z,17.56
2022-10-08T09:56:48.556Z,17.49
2022-10-08T09:57:48.545Z,17.49
2022-10-08T09:58:48.542Z,17.31
2022-10-08T09:59:48.536Z,17.30
2022-10-08T10:00:48.509Z,17.22
2022-10-08T10:01:48.526Z,17.19
2022-10-08T10:02:48.961Z,17.20
2022-10-08T10:03:48.520Z,17.29
2022-10-08T10:04:48.490Z,17.34
2022-10-08T10:05:48.464Z,17.41
2022-10-08T10:06:48.449Z,17.49
2022-10-08T10:07:48.436Z,17.57
2022-10-08T10:08:48.445Z,17.76
2022-10-08T10:09:48.411Z,17.79
2022-10-08T10:10:48.405Z,17.76
2022-10-08T10:11:48.396Z,17.74
2022-10-08T10:12:48.832Z,17.64
2022-10-08T10:13:48.724Z,17.52
2022-10-08T10:14:48.363Z,17.60
2022-10-08T10:15:48.378Z,17.67
2022-10-08T10:16:48.391Z,17.63
2022-10-08T10:17:48.325Z,17.65
2022-10-08T10:18:48.316Z,17.52
2022-10-08T10:19:48.306Z,17.59
2022-10-08T10:20:48.320Z,17.46
2022-10-08T10:21:48.299Z,17.49
2022-10-08T10:22:48.592Z,17.60
2022-10-08T10:23:48.276Z,17.51
2022-10-08T10:24:48.270Z,17.48
2022-10-08T10:25:48.236Z,17.38
2022-10-08T10:26:48.232Z,17.23
2022-10-08T10:27:55.299Z,17.24
2022-10-08T10:28:48.278Z,17.27
2022-10-08T10:29:48.190Z,17.23
2022-10-08T10:30:48.213Z,17.15
2022-10-08T10:31:48.166Z,17.11
2022-10-08T10:32:48.534Z,17.11
2022-10-08T10:33:48.149Z,17.09
2022-10-08T10:34:48.135Z,17.06
2022-10-08T10:35:48.126Z,17.08
2022-10-08T10:36:48.147Z,17.08
2022-10-08T10:37:48.134Z,17.06
2022-10-08T10:38:48.094Z,17.12
2022-10-08T10:39:48.097Z,17.20
2022-10-08T10:40:48.072Z,17.20
2022-10-08T10:41:48.055Z,17.09
2022-10-08T10:42:48.444Z,17.11
2022-10-08T10:43:48.053Z,17.09
2022-10-08T10:44:48.022Z,17.02
2022-10-08T10:45:48.069Z,17.09
2022-10-08T10:46:47.998Z,17.04
2022-10-08T10:47:47.985Z,17.02
2022-10-08T10:48:47.979Z,17.08
2022-10-08T10:49:47.995Z,16.99
2022-10-08T10:50:47.955Z,16.97
2022-10-08T10:51:47.944Z,17.04
2022-10-08T10:52:48.284Z,16.99
2022-10-08T10:53:47.929Z,16.93
2022-10-08T10:54:47.935Z,16.93
2022-10-08T10:55:52.542Z,16.97
2022-10-08T10:56:48.896Z,16.91
2022-10-08T10:57:47.895Z,16.94
2022-10-08T10:58:47.868Z,16.91
2022-10-08T10:59:47.877Z,16.81
2022-10-08T11:00:47.858Z,16.72
2022-10-08T11:01:47.936Z,16.68
2022-10-08T11:02:48.272Z,16.71
2022-10-08T11:03:47.814Z,16.72
2022-10-08T11:04:47.809Z,16.66
2022-10-08T11:05:47.803Z,16.72
2022-10-08T11:06:47.779Z,16.64
2022-10-08T11:07:47.771Z,16.56
2022-10-08T11:08:47.838Z,16.43
2022-10-08T11:09:47.778Z,16.47
2022-10-08T11:10:47.735Z,16.46
2022-10-08T11:11:47.733Z,16.41
2022-10-08T11:12:48.044Z,16.43
2022-10-08T11:13:47.708Z,16.36
2022-10-08T11:14:47.700Z,16.31
2022-10-08T11:15:47.746Z,16.29
2022-10-08T11:16:47.670Z,16.26
2022-10-08T11:17:47.673Z,16.16
2022-10-08T11:18:47.641Z,16.17
2022-10-08T11:19:47.643Z,16.28
2022-10-08T11:20:47.643Z,16.16
2022-10-08T11:21:47.618Z,16.16
2022-10-08T11:22:47.833Z,16.12
2022-10-08T11:23:47.601Z,16.16
2022-10-08T11:24:47.602Z,16.16
2022-10-08T11:26:14.026Z,16.20
2022-10-08T11:26:48.556Z,16.16
2022-10-08T11:27:47.556Z,16.10
2022-10-08T11:28:47.607Z,16.15
2022-10-08T11:29:47.522Z,16.04
2022-10-08T11:30:47.545Z,16.01
2022-10-08T11:31:47.526Z,15.95
2022-10-08T11:32:47.695Z,15.95
2022-10-08T11:33:47.488Z,15.86
2022-10-08T11:34:47.472Z,15.86
2022-10-08T11:35:47.459Z,15.90
2022-10-08T11:36:47.443Z,15.97
2022-10-08T11:37:47.459Z,15.95
2022-10-08T11:38:47.435Z,15.84
2022-10-08T11:39:47.423Z,15.84
2022-10-08T11:40:47.495Z,15.80
2022-10-08T11:41:47.395Z,15.86
2022-10-08T11:42:48.639Z,15.72
2022-10-08T11:43:47.411Z,15.65
2022-10-08T11:44:47.372Z,15.68
2022-10-08T11:45:47.348Z,15.54
2022-10-08T11:46:47.350Z,15.49
2022-10-08T11:47:47.348Z,15.40
2022-10-08T11:48:47.350Z,15.39
2022-10-08T11:49:47.308Z,15.44
2022-10-08T11:50:47.291Z,15.44
2022-10-08T11:51:47.287Z,15.43
2022-10-08T11:52:47.502Z,15.43
2022-10-08T11:53:47.285Z,15.52
2022-10-08T11:54:50.505Z,15.54
2022-10-08T11:55:48.239Z,15.57
2022-10-08T11:56:47.257Z,15.57
2022-10-08T11:58:07.284Z,15.57
2022-10-08T11:58:48.264Z,15.73
2022-10-08T11:59:47.215Z,15.68
2022-10-08T12:00:47.194Z,15.76
2022-10-08T12:01:47.182Z,15.65
2022-10-08T12:02:47.691Z,15.64
2022-10-08T12:03:47.214Z,15.64
2022-10-08T12:04:47.178Z,15.65
2022-10-08T12:05:50.331Z,15.58
2022-10-08T12:06:47.145Z,15.59
2022-10-08T12:07:47.122Z,15.55
2022-10-08T12:08:47.101Z,15.65
2022-10-08T12:09:47.121Z,15.70
2022-10-08T12:10:47.086Z,15.90
2022-10-08T12:11:47.064Z,15.91
2022-10-08T12:12:47.521Z,15.84
2022-10-08T12:13:47.061Z,15.84
2022-10-08T12:14:47.039Z,15.94
2022-10-08T12:15:47.106Z,15.90
2022-10-08T12:16:47.016Z,15.90
2022-10-08T12:17:47.001Z,15.90
2022-10-08T12:18:46.993Z,15.92
2022-10-08T12:19:46.987Z,16.04
2022-10-08T12:20:46.981Z,16.05
2022-10-08T12:21:46.969Z,16.09
2022-10-08T12:22:47.311Z,16.15
2022-10-08T12:23:46.956Z,16.16
2022-10-08T12:24:50.354Z,16.12
2022-10-08T12:25:46.920Z,16.26
2022-10-08T12:26:46.912Z,16.32
2022-10-08T12:27:46.902Z,16.28
2022-10-08T12:28:47.042Z,16.35
2022-10-08T12:29:46.888Z,16.47
2022-10-08T12:30:46.910Z,16.53
2022-10-08T12:31:49.703Z,16.57
2022-10-08T12:32:47.232Z,16.54
2022-10-08T12:33:46.872Z,16.51
2022-10-08T12:34:46.844Z,16.57
2022-10-08T12:35:46.843Z,16.57
2022-10-08T12:36:46.854Z,16.42
2022-10-08T12:37:47.122Z,16.46
2022-10-08T12:38:46.777Z,16.42
2022-10-08T12:39:46.782Z,16.12
2022-10-08T12:40:46.823Z,16.17
2022-10-08T12:41:46.784Z,16.08
2022-10-08T12:42:46.806Z,16.02
2022-10-08T12:43:46.789Z,15.90
2022-10-08T12:44:46.765Z,15.82
2022-10-08T12:45:46.737Z,15.83
2022-10-08T12:46:50.306Z,15.95
2022-10-08T12:47:46.987Z,15.97
2022-10-08T12:48:46.710Z,15.97
2022-10-08T12:49:46.674Z,16.00
2022-10-08T12:50:46.680Z,16.15
2022-10-08T12:51:46.718Z,16.16
2022-10-08T12:52:46.635Z,16.10